Sarasota Bradenton International Airport
KSRQ : now visible

Airfield :











YOU CAN JOIN US ON...

 
LOGIN :

Register | Disclaimer

   EN    FR    IT 

 









Legend :    VFR   Marginal VFR   IFR   Intensive IFR   Very Intensive IFR
Visi :
Ceiling :
>= 8 km
>= 3000ft
5 to 8 km
1000 to 3000 ft
1500m to 5 km
500 to 1000 ft
800 to 1500m
200 to 500 ft
< 800m
< 200 ft
Symbols :   Thunderstorms  Fog  Heavy snow  Heavy precipitations  Wind > 20 kt







- Airport Elevation : 30 ft
- IATA code : SRQ


KSRQ - Sarasota Bradenton International

CURRENT METAR :
  • 230853Z AUTO 04004KT 10SM CLR 25/24 A2996 RMK AO2 SLP143 T02500239 56009

EXPIRED METARs :
  • 230825Z AUTO 00000KT 10SM FEW003 26/24 A2996 RMK AO2 T02560239
  • 230753Z AUTO 08003KT 10SM CLR 26/24 A2996 RMK AO2 SLP144 T02560239
  • 230653Z AUTO 07004KT 10SM CLR 26/24 A2997 RMK AO2 SLP147 T02560239

TAF KSRQ
Valid from the 23 at 06:00 until the 24 at 06:00 UTC


230520Z 2306/2406 VRB04KT P6SM FEW030 SCT250
FM231400 08007KT P6SM FEW040 SCT250
FM231900 02009KT P6SM VCTS SCT040CB
FM240100 VRB04KT P6SM FEW040 SCT250
No reported NOTAMs for that airfield.



MET'MAP, your aeronautical weather chart ! - Copyright ORBIFLY December 2007 - Disclaimer

ORBIFLY MET'MAP TEAM :

Programming & Development : Alexandra Zaïnal
Concept & Development : Baudouin d'Aumeries
Co-Development & Prog : Marc-Olivier Méhu
Technical & hardware support : Manuel Goepfert

Contact : metmap@orbifly.com




SOURCES & CREDITS :

   NOAA       Earth
Advisory